sensor_id;sensor_type;location;lat;lon;timestamp;P1;durP1;ratioP1;P2;durP2;ratioP2
846;SDS011;410;48.954;9.474;2024-01-06T00:00:16;16.75;;;11.55;;
846;SDS011;410;48.954;9.474;2024-01-06T00:02:34;14.98;;;10.10;;
846;SDS011;410;48.954;9.474;2024-01-06T00:04:56;12.35;;;9.77;;
846;SDS011;410;48.954;9.474;2024-01-06T00:07:01;18.83;;;11.40;;
846;SDS011;410;48.954;9.474;2024-01-06T00:09:25;16.00;;;11.23;;
846;SDS011;410;48.954;9.474;2024-01-06T00:11:35;15.10;;;10.65;;
846;SDS011;410;48.954;9.474;2024-01-06T00:13:58;15.20;;;10.95;;
846;SDS011;410;48.954;9.474;2024-01-06T00:16:06;15.88;;;12.10;;
846;SDS011;410;48.954;9.474;2024-01-06T00:18:20;16.65;;;11.35;;
846;SDS011;410;48.954;9.474;2024-01-06T00:20:44;16.92;;;11.27;;
846;SDS011;410;48.954;9.474;2024-01-06T00:22:50;17.60;;;11.75;;
846;SDS011;410;48.954;9.474;2024-01-06T00:24:56;16.55;;;11.50;;
846;SDS011;410;48.954;9.474;2024-01-06T00:27:07;17.40;;;11.20;;
846;SDS011;410;48.954;9.474;2024-01-06T00:29:14;16.48;;;11.48;;
846;SDS011;410;48.954;9.474;2024-01-06T00:31:21;14.32;;;11.05;;
846;SDS011;410;48.954;9.474;2024-01-06T00:33:25;12.30;;;9.88;;
846;SDS011;410;48.954;9.474;2024-01-06T00:35:29;16.63;;;11.73;;
846;SDS011;410;48.954;9.474;2024-01-06T00:37:35;20.40;;;12.05;;
846;SDS011;410;48.954;9.474;2024-01-06T00:39:44;15.35;;;11.40;;
846;SDS011;410;48.954;9.474;2024-01-06T00:41:50;15.63;;;11.20;;
846;SDS011;410;48.954;9.474;2024-01-06T00:43:58;15.93;;;12.27;;
846;SDS011;410;48.954;9.474;2024-01-06T00:46:08;16.08;;;11.98;;
846;SDS011;410;48.954;9.474;2024-01-06T00:48:17;16.23;;;12.23;;
846;SDS011;410;48.954;9.474;2024-01-06T00:50:21;18.30;;;11.23;;
846;SDS011;410;48.954;9.474;2024-01-06T00:52:31;16.65;;;12.85;;
846;SDS011;410;48.954;9.474;2024-01-06T00:54:54;17.88;;;12.25;;
846;SDS011;410;48.954;9.474;2024-01-06T00:56:59;15.00;;;12.65;;
846;SDS011;410;48.954;9.474;2024-01-06T00:59:22;18.15;;;12.73;;
846;SDS011;410;48.954;9.474;2024-01-06T01:01:27;16.38;;;12.40;;
846;SDS011;410;48.954;9.474;2024-01-06T01:03:51;17.25;;;13.43;;
846;SDS011;410;48.954;9.474;2024-01-06T01:05:59;18.23;;;13.20;;
846;SDS011;410;48.954;9.474;2024-01-06T01:08:08;19.05;;;13.40;;
846;SDS011;410;48.954;9.474;2024-01-06T01:10:18;21.13;;;13.40;;
846;SDS011;410;48.954;9.474;2024-01-06T01:12:27;16.65;;;12.07;;
846;SDS011;410;48.954;9.474;2024-01-06T01:14:32;19.85;;;12.73;;
846;SDS011;410;48.954;9.474;2024-01-06T01:16:39;16.05;;;12.70;;
846;SDS011;410;48.954;9.474;2024-01-06T01:18:44;16.27;;;11.70;;
846;SDS011;410;48.954;9.474;2024-01-06T01:20:50;14.50;;;10.38;;
846;SDS011;410;48.954;9.474;2024-01-06T01:22:56;14.95;;;11.60;;
846;SDS011;410;48.954;9.474;2024-01-06T01:25:02;15.48;;;11.27;;
846;SDS011;410;48.954;9.474;2024-01-06T01:27:18;16.10;;;11.40;;
846;SDS011;410;48.954;9.474;2024-01-06T01:29:25;15.00;;;11.38;;
846;SDS011;410;48.954;9.474;2024-01-06T01:31:32;16.95;;;11.75;;
846;SDS011;410;48.954;9.474;2024-01-06T01:33:42;14.57;;;11.48;;
846;SDS011;410;48.954;9.474;2024-01-06T01:35:51;14.98;;;11.73;;
846;SDS011;410;48.954;9.474;2024-01-06T01:38:06;15.48;;;11.90;;
846;SDS011;410;48.954;9.474;2024-01-06T01:40:12;16.88;;;11.00;;
846;SDS011;410;48.954;9.474;2024-01-06T01:42:27;19.83;;;10.82;;
846;SDS011;410;48.954;9.474;2024-01-06T01:44:38;14.00;;;9.77;;
846;SDS011;410;48.954;9.474;2024-01-06T01:46:54;19.45;;;14.77;;
846;SDS011;410;48.954;9.474;2024-01-06T01:49:01;26.10;;;15.38;;
846;SDS011;410;48.954;9.474;2024-01-06T01:51:08;20.17;;;14.48;;
846;SDS011;410;48.954;9.474;2024-01-06T01:53:23;18.10;;;11.15;;
846;SDS011;410;48.954;9.474;2024-01-06T01:55:30;12.93;;;9.88;;
846;SDS011;410;48.954;9.474;2024-01-06T01:57:45;16.38;;;12.70;;
846;SDS011;410;48.954;9.474;2024-01-06T01:59:58;13.70;;;11.90;;
846;SDS011;410;48.954;9.474;2024-01-06T02:02:14;14.32;;;9.50;;
846;SDS011;410;48.954;9.474;2024-01-06T02:04:21;12.55;;;8.98;;
846;SDS011;410;48.954;9.474;2024-01-06T02:06:35;14.40;;;9.40;;
846;SDS011;410;48.954;9.474;2024-01-06T02:08:41;15.07;;;9.68;;
846;SDS011;410;48.954;9.474;2024-01-06T02:10:53;12.63;;;9.63;;
846;SDS011;410;48.954;9.474;2024-01-06T02:13:07;16.70;;;9.77;;
846;SDS011;410;48.954;9.474;2024-01-06T02:15:12;12.80;;;8.77;;
846;SDS011;410;48.954;9.474;2024-01-06T02:17:24;13.43;;;9.23;;
846;SDS011;410;48.954;9.474;2024-01-06T02:19:30;16.00;;;9.10;;
846;SDS011;410;48.954;9.474;2024-01-06T02:21:43;14.50;;;9.43;;
846;SDS011;410;48.954;9.474;2024-01-06T02:23:55;10.75;;;8.10;;
846;SDS011;410;48.954;9.474;2024-01-06T02:26:10;12.30;;;9.20;;
846;SDS011;410;48.954;9.474;2024-01-06T02:28:21;10.88;;;8.40;;
846;SDS011;410;48.954;9.474;2024-01-06T02:30:28;11.35;;;8.63;;
846;SDS011;410;48.954;9.474;2024-01-06T02:32:36;15.90;;;10.10;;
846;SDS011;410;48.954;9.474;2024-01-06T02:34:42;12.82;;;9.25;;
846;SDS011;410;48.954;9.474;2024-01-06T02:36:50;15.40;;;8.88;;
846;SDS011;410;48.954;9.474;2024-01-06T02:39:06;13.20;;;9.32;;
846;SDS011;410;48.954;9.474;2024-01-06T02:41:14;14.38;;;10.52;;
846;SDS011;410;48.954;9.474;2024-01-06T02:43:20;18.15;;;10.20;;
846;SDS011;410;48.954;9.474;2024-01-06T02:45:28;12.43;;;9.45;;
846;SDS011;410;48.954;9.474;2024-01-06T02:47:52;12.75;;;9.70;;
846;SDS011;410;48.954;9.474;2024-01-06T02:50:05;12.23;;;9.25;;
846;SDS011;410;48.954;9.474;2024-01-06T02:52:28;14.70;;;9.60;;
846;SDS011;410;48.954;9.474;2024-01-06T02:54:53;14.65;;;10.70;;
846;SDS011;410;48.954;9.474;2024-01-06T02:57:10;14.15;;;11.43;;
846;SDS011;410;48.954;9.474;2024-01-06T02:59:29;16.45;;;11.68;;
846;SDS011;410;48.954;9.474;2024-01-06T03:01:52;15.98;;;9.82;;
846;SDS011;410;48.954;9.474;2024-01-06T03:04:02;14.40;;;10.57;;
846;SDS011;410;48.954;9.474;2024-01-06T03:06:20;16.80;;;11.00;;
846;SDS011;410;48.954;9.474;2024-01-06T03:08:43;14.30;;;10.68;;
846;SDS011;410;48.954;9.474;2024-01-06T03:11:08;17.30;;;11.00;;
846;SDS011;410;48.954;9.474;2024-01-06T03:13:31;13.10;;;9.80;;
846;SDS011;410;48.954;9.474;2024-01-06T03:15:54;18.58;;;10.60;;
846;SDS011;410;48.954;9.474;2024-01-06T03:18:17;13.52;;;9.80;;
846;SDS011;410;48.954;9.474;2024-01-06T03:20:24;12.00;;;10.27;;
846;SDS011;410;48.954;9.474;2024-01-06T03:22:47;13.38;;;9.45;;
846;SDS011;410;48.954;9.474;2024-01-06T03:25:11;15.80;;;9.98;;
846;SDS011;410;48.954;9.474;2024-01-06T03:27:35;13.95;;;10.05;;
846;SDS011;410;48.954;9.474;2024-01-06T03:29:53;14.23;;;9.82;;
846;SDS011;410;48.954;9.474;2024-01-06T03:32:00;14.93;;;9.15;;
846;SDS011;410;48.954;9.474;2024-01-06T03:34:13;13.48;;;9.73;;
846;SDS011;410;48.954;9.474;2024-01-06T03:36:28;11.02;;;9.32;;
846;SDS011;410;48.954;9.474;2024-01-06T03:38:33;11.80;;;9.52;;
846;SDS011;410;48.954;9.474;2024-01-06T03:40:40;11.40;;;9.20;;
846;SDS011;410;48.954;9.474;2024-01-06T03:42:51;12.85;;;8.95;;
846;SDS011;410;48.954;9.474;2024-01-06T03:45:10;12.40;;;8.60;;
846;SDS011;410;48.954;9.474;2024-01-06T03:47:30;11.52;;;9.20;;
846;SDS011;410;48.954;9.474;2024-01-06T03:49:41;18.60;;;10.80;;
846;SDS011;410;48.954;9.474;2024-01-06T03:51:46;14.50;;;10.38;;
846;SDS011;410;48.954;9.474;2024-01-06T03:53:52;13.27;;;9.70;;
846;SDS011;410;48.954;9.474;2024-01-06T03:55:58;12.35;;;9.55;;
846;SDS011;410;48.954;9.474;2024-01-06T03:58:06;12.77;;;8.60;;
846;SDS011;410;48.954;9.474;2024-01-06T04:00:21;10.15;;;8.02;;
846;SDS011;410;48.954;9.474;2024-01-06T04:02:29;14.70;;;8.60;;
846;SDS011;410;48.954;9.474;2024-01-06T04:04:36;11.52;;;8.38;;
846;SDS011;410;48.954;9.474;2024-01-06T04:06:41;11.50;;;9.05;;
846;SDS011;410;48.954;9.474;2024-01-06T04:08:52;10.43;;;8.32;;
846;SDS011;410;48.954;9.474;2024-01-06T04:10:59;11.02;;;9.10;;
846;SDS011;410;48.954;9.474;2024-01-06T04:13:08;12.18;;;9.10;;
846;SDS011;410;48.954;9.474;2024-01-06T04:15:19;12.60;;;8.75;;
846;SDS011;410;48.954;9.474;2024-01-06T04:17:24;13.48;;;8.93;;
846;SDS011;410;48.954;9.474;2024-01-06T04:19:31;15.32;;;9.65;;
846;SDS011;410;48.954;9.474;2024-01-06T04:21:35;12.23;;;8.48;;
846;SDS011;410;48.954;9.474;2024-01-06T04:23:42;11.43;;;8.77;;
846;SDS011;410;48.954;9.474;2024-01-06T04:25:51;11.60;;;8.52;;
846;SDS011;410;48.954;9.474;2024-01-06T04:27:56;13.30;;;8.73;;
846;SDS011;410;48.954;9.474;2024-01-06T04:30:06;14.63;;;8.80;;
846;SDS011;410;48.954;9.474;2024-01-06T04:32:15;12.13;;;8.40;;
846;SDS011;410;48.954;9.474;2024-01-06T04:34:21;9.98;;;8.68;;
846;SDS011;410;48.954;9.474;2024-01-06T04:36:32;11.63;;;8.18;;
846;SDS011;410;48.954;9.474;2024-01-06T04:38:40;11.55;;;8.45;;
846;SDS011;410;48.954;9.474;2024-01-06T04:40:57;12.75;;;8.43;;
846;SDS011;410;48.954;9.474;2024-01-06T04:43:08;8.43;;;6.95;;
846;SDS011;410;48.954;9.474;2024-01-06T04:45:15;13.57;;;8.65;;
846;SDS011;410;48.954;9.474;2024-01-06T04:47:41;10.00;;;8.10;;
846;SDS011;410;48.954;9.474;2024-01-06T04:49:47;9.40;;;8.40;;
846;SDS011;410;48.954;9.474;2024-01-06T04:51:56;11.80;;;7.45;;
846;SDS011;410;48.954;9.474;2024-01-06T04:54:02;12.15;;;7.85;;
846;SDS011;410;48.954;9.474;2024-01-06T04:56:07;12.02;;;7.22;;
846;SDS011;410;48.954;9.474;2024-01-06T04:58:16;10.73;;;7.40;;
846;SDS011;410;48.954;9.474;2024-01-06T05:00:22;14.10;;;7.35;;
846;SDS011;410;48.954;9.474;2024-01-06T05:02:28;9.07;;;7.30;;
846;SDS011;410;48.954;9.474;2024-01-06T05:04:51;9.15;;;7.05;;
846;SDS011;410;48.954;9.474;2024-01-06T05:07:08;9.85;;;7.38;;
846;SDS011;410;48.954;9.474;2024-01-06T05:09:25;9.52;;;7.93;;
846;SDS011;410;48.954;9.474;2024-01-06T05:11:48;11.00;;;7.47;;
846;SDS011;410;48.954;9.474;2024-01-06T05:14:04;10.23;;;7.47;;
846;SDS011;410;48.954;9.474;2024-01-06T05:16:28;10.63;;;8.70;;
846;SDS011;410;48.954;9.474;2024-01-06T05:18:40;10.60;;;8.55;;
846;SDS011;410;48.954;9.474;2024-01-06T05:21:00;11.30;;;8.52;;
846;SDS011;410;48.954;9.474;2024-01-06T05:23:23;10.10;;;8.00;;
846;SDS011;410;48.954;9.474;2024-01-06T05:25:29;9.52;;;8.10;;
846;SDS011;410;48.954;9.474;2024-01-06T05:27:52;12.20;;;8.18;;
846;SDS011;410;48.954;9.474;2024-01-06T05:30:06;10.13;;;7.97;;
846;SDS011;410;48.954;9.474;2024-01-06T05:32:23;8.95;;;6.30;;
846;SDS011;410;48.954;9.474;2024-01-06T05:34:42;9.35;;;6.65;;
846;SDS011;410;48.954;9.474;2024-01-06T05:37:06;7.53;;;5.03;;
846;SDS011;410;48.954;9.474;2024-01-06T05:39:29;6.68;;;5.30;;
846;SDS011;410;48.954;9.474;2024-01-06T05:41:52;6.43;;;4.80;;
846;SDS011;410;48.954;9.474;2024-01-06T05:44:15;8.88;;;5.20;;
846;SDS011;410;48.954;9.474;2024-01-06T05:46:39;7.55;;;5.00;;
846;SDS011;410;48.954;9.474;2024-01-06T05:49:03;6.75;;;5.20;;
846;SDS011;410;48.954;9.474;2024-01-06T05:51:21;8.98;;;5.13;;
846;SDS011;410;48.954;9.474;2024-01-06T05:53:27;7.53;;;4.80;;
846;SDS011;410;48.954;9.474;2024-01-06T05:55:44;9.25;;;5.20;;
846;SDS011;410;48.954;9.474;2024-01-06T05:57:50;6.82;;;5.30;;
846;SDS011;410;48.954;9.474;2024-01-06T05:59:58;8.32;;;5.85;;
846;SDS011;410;48.954;9.474;2024-01-06T06:02:09;10.02;;;6.57;;
846;SDS011;410;48.954;9.474;2024-01-06T06:04:17;11.20;;;7.65;;
846;SDS011;410;48.954;9.474;2024-01-06T06:06:31;8.80;;;6.80;;
846;SDS011;410;48.954;9.474;2024-01-06T06:08:35;9.73;;;7.60;;
846;SDS011;410;48.954;9.474;2024-01-06T06:10:43;11.35;;;7.30;;
846;SDS011;410;48.954;9.474;2024-01-06T06:13:07;10.75;;;7.30;;
846;SDS011;410;48.954;9.474;2024-01-06T06:15:15;12.10;;;5.20;;
846;SDS011;410;48.954;9.474;2024-01-06T06:17:21;7.55;;;5.22;;
846;SDS011;410;48.954;9.474;2024-01-06T06:19:30;8.70;;;5.70;;
846;SDS011;410;48.954;9.474;2024-01-06T06:21:37;8.13;;;5.13;;
846;SDS011;410;48.954;9.474;2024-01-06T06:23:44;8.60;;;4.72;;
846;SDS011;410;48.954;9.474;2024-01-06T06:26:07;11.80;;;6.45;;
846;SDS011;410;48.954;9.474;2024-01-06T06:28:31;7.95;;;3.85;;
846;SDS011;410;48.954;9.474;2024-01-06T06:30:54;6.50;;;4.10;;
846;SDS011;410;48.954;9.474;2024-01-06T06:32:59;5.25;;;3.90;;
846;SDS011;410;48.954;9.474;2024-01-06T06:35:24;7.78;;;4.40;;
846;SDS011;410;48.954;9.474;2024-01-06T06:37:41;9.50;;;5.35;;
846;SDS011;410;48.954;9.474;2024-01-06T06:40:04;7.13;;;4.20;;
846;SDS011;410;48.954;9.474;2024-01-06T06:42:24;6.90;;;3.45;;
846;SDS011;410;48.954;9.474;2024-01-06T06:44:38;6.95;;;3.70;;
846;SDS011;410;48.954;9.474;2024-01-06T06:46:45;6.15;;;3.70;;
846;SDS011;410;48.954;9.474;2024-01-06T06:49:09;7.28;;;3.72;;
846;SDS011;410;48.954;9.474;2024-01-06T06:51:28;5.75;;;3.17;;
846;SDS011;410;48.954;9.474;2024-01-06T06:53:36;6.70;;;3.28;;
846;SDS011;410;48.954;9.474;2024-01-06T06:55:42;5.97;;;4.15;;
846;SDS011;410;48.954;9.474;2024-01-06T06:57:49;8.13;;;3.42;;
846;SDS011;410;48.954;9.474;2024-01-06T06:59:58;7.90;;;3.58;;
846;SDS011;410;48.954;9.474;2024-01-06T07:02:05;5.60;;;3.70;;
846;SDS011;410;48.954;9.474;2024-01-06T07:04:13;6.88;;;4.00;;
846;SDS011;410;48.954;9.474;2024-01-06T07:06:29;5.18;;;3.70;;
846;SDS011;410;48.954;9.474;2024-01-06T07:08:49;8.82;;;3.95;;
846;SDS011;410;48.954;9.474;2024-01-06T07:11:13;7.25;;;3.70;;
846;SDS011;410;48.954;9.474;2024-01-06T07:13:40;8.23;;;3.67;;
846;SDS011;410;48.954;9.474;2024-01-06T07:16:03;8.15;;;4.10;;
846;SDS011;410;48.954;9.474;2024-01-06T07:18:38;7.07;;;3.40;;
846;SDS011;410;48.954;9.474;2024-01-06T07:21:03;4.72;;;3.80;;
846;SDS011;410;48.954;9.474;2024-01-06T07:23:29;7.78;;;3.65;;
846;SDS011;410;48.954;9.474;2024-01-06T07:25:52;11.63;;;4.22;;
846;SDS011;410;48.954;9.474;2024-01-06T07:28:14;7.63;;;4.30;;
846;SDS011;410;48.954;9.474;2024-01-06T07:30:36;7.45;;;4.72;;
846;SDS011;410;48.954;9.474;2024-01-06T07:32:58;6.53;;;4.28;;
846;SDS011;410;48.954;9.474;2024-01-06T07:35:20;6.60;;;4.63;;
846;SDS011;410;48.954;9.474;2024-01-06T07:37:41;5.38;;;4.18;;
846;SDS011;410;48.954;9.474;2024-01-06T07:40:05;9.05;;;3.85;;
846;SDS011;410;48.954;9.474;2024-01-06T07:42:27;5.60;;;3.88;;
846;SDS011;410;48.954;9.474;2024-01-06T07:44:48;6.15;;;3.80;;
846;SDS011;410;48.954;9.474;2024-01-06T07:47:12;7.20;;;3.55;;
846;SDS011;410;48.954;9.474;2024-01-06T07:49:50;4.43;;;3.40;;
846;SDS011;410;48.954;9.474;2024-01-06T07:52:13;6.15;;;3.95;;
846;SDS011;410;48.954;9.474;2024-01-06T07:54:36;6.15;;;3.67;;
846;SDS011;410;48.954;9.474;2024-01-06T07:57:04;8.77;;;4.80;;
846;SDS011;410;48.954;9.474;2024-01-06T07:59:12;4.85;;;3.67;;
846;SDS011;410;48.954;9.474;2024-01-06T08:01:15;6.88;;;3.83;;
846;SDS011;410;48.954;9.474;2024-01-06T08:03:19;6.22;;;4.45;;
846;SDS011;410;48.954;9.474;2024-01-06T08:05:22;5.35;;;3.97;;
846;SDS011;410;48.954;9.474;2024-01-06T08:07:25;6.85;;;4.20;;
846;SDS011;410;48.954;9.474;2024-01-06T08:09:29;7.32;;;4.20;;
846;SDS011;410;48.954;9.474;2024-01-06T08:11:31;24.17;;;17.20;;
846;SDS011;410;48.954;9.474;2024-01-06T08:13:35;16.38;;;11.50;;
846;SDS011;410;48.954;9.474;2024-01-06T08:15:39;19.05;;;14.35;;
846;SDS011;410;48.954;9.474;2024-01-06T08:17:42;10.98;;;6.85;;
846;SDS011;410;48.954;9.474;2024-01-06T08:19:45;7.85;;;5.50;;
846;SDS011;410;48.954;9.474;2024-01-06T08:21:49;8.55;;;5.20;;
846;SDS011;410;48.954;9.474;2024-01-06T08:23:53;8.15;;;4.70;;
846;SDS011;410;48.954;9.474;2024-01-06T08:25:56;8.27;;;5.00;;
846;SDS011;410;48.954;9.474;2024-01-06T08:27:59;9.10;;;5.18;;
846;SDS011;410;48.954;9.474;2024-01-06T08:30:05;7.88;;;4.75;;
846;SDS011;410;48.954;9.474;2024-01-06T08:32:09;8.57;;;5.03;;
846;SDS011;410;48.954;9.474;2024-01-06T08:34:15;23.60;;;14.85;;
846;SDS011;410;48.954;9.474;2024-01-06T08:36:19;12.15;;;7.60;;
846;SDS011;410;48.954;9.474;2024-01-06T08:38:22;10.90;;;6.70;;
846;SDS011;410;48.954;9.474;2024-01-06T08:40:26;9.93;;;8.38;;
846;SDS011;410;48.954;9.474;2024-01-06T08:42:29;10.32;;;7.38;;
846;SDS011;410;48.954;9.474;2024-01-06T08:44:32;26.13;;;20.55;;
846;SDS011;410;48.954;9.474;2024-01-06T08:46:40;11.90;;;9.00;;
846;SDS011;410;48.954;9.474;2024-01-06T08:48:43;13.48;;;11.48;;
846;SDS011;410;48.954;9.474;2024-01-06T08:50:47;15.98;;;11.98;;
846;SDS011;410;48.954;9.474;2024-01-06T08:52:50;16.20;;;11.65;;
846;SDS011;410;48.954;9.474;2024-01-06T08:54:54;18.58;;;9.52;;
846;SDS011;410;48.954;9.474;2024-01-06T08:56:57;7.72;;;6.85;;
846;SDS011;410;48.954;9.474;2024-01-06T08:59:01;12.65;;;8.18;;
846;SDS011;410;48.954;9.474;2024-01-06T09:01:04;10.82;;;8.75;;
846;SDS011;410;48.954;9.474;2024-01-06T09:03:09;15.50;;;9.70;;
846;SDS011;410;48.954;9.474;2024-01-06T09:05:14;14.73;;;9.45;;
846;SDS011;410;48.954;9.474;2024-01-06T09:07:18;12.68;;;8.68;;
846;SDS011;410;48.954;9.474;2024-01-06T09:09:22;14.52;;;8.85;;
846;SDS011;410;48.954;9.474;2024-01-06T09:11:25;11.98;;;7.80;;
846;SDS011;410;48.954;9.474;2024-01-06T09:13:29;10.02;;;8.20;;
846;SDS011;410;48.954;9.474;2024-01-06T09:15:34;11.88;;;7.47;;
846;SDS011;410;48.954;9.474;2024-01-06T09:17:37;12.70;;;8.30;;
846;SDS011;410;48.954;9.474;2024-01-06T09:19:42;13.30;;;8.30;;
846;SDS011;410;48.954;9.474;2024-01-06T09:21:45;11.68;;;8.65;;
846;SDS011;410;48.954;9.474;2024-01-06T09:23:48;10.90;;;7.78;;
846;SDS011;410;48.954;9.474;2024-01-06T09:25:50;12.65;;;9.02;;
846;SDS011;410;48.954;9.474;2024-01-06T09:27:54;11.90;;;8.70;;
846;SDS011;410;48.954;9.474;2024-01-06T09:29:58;8.98;;;8.05;;
846;SDS011;410;48.954;9.474;2024-01-06T09:32:01;11.25;;;8.48;;
846;SDS011;410;48.954;9.474;2024-01-06T09:34:08;12.13;;;8.00;;
846;SDS011;410;48.954;9.474;2024-01-06T09:36:13;10.77;;;7.57;;
846;SDS011;410;48.954;9.474;2024-01-06T09:38:16;12.05;;;7.50;;
846;SDS011;410;48.954;9.474;2024-01-06T09:40:20;9.35;;;7.90;;
846;SDS011;410;48.954;9.474;2024-01-06T09:42:25;10.27;;;6.97;;
846;SDS011;410;48.954;9.474;2024-01-06T09:44:29;9.60;;;7.47;;
846;SDS011;410;48.954;9.474;2024-01-06T09:46:33;9.23;;;6.47;;
846;SDS011;410;48.954;9.474;2024-01-06T09:48:40;9.55;;;7.30;;
846;SDS011;410;48.954;9.474;2024-01-06T09:50:43;7.93;;;6.25;;
846;SDS011;410;48.954;9.474;2024-01-06T09:52:48;6.78;;;5.18;;
846;SDS011;410;48.954;9.474;2024-01-06T09:54:56;9.45;;;6.18;;
846;SDS011;410;48.954;9.474;2024-01-06T09:57:01;9.95;;;5.63;;
846;SDS011;410;48.954;9.474;2024-01-06T09:59:05;7.15;;;5.15;;
846;SDS011;410;48.954;9.474;2024-01-06T10:01:08;8.63;;;6.25;;
846;SDS011;410;48.954;9.474;2024-01-06T10:03:12;8.70;;;6.55;;
846;SDS011;410;48.954;9.474;2024-01-06T10:05:16;8.07;;;5.72;;
846;SDS011;410;48.954;9.474;2024-01-06T10:07:19;8.70;;;5.15;;
846;SDS011;410;48.954;9.474;2024-01-06T10:09:27;9.23;;;6.22;;
846;SDS011;410;48.954;9.474;2024-01-06T10:11:30;10.43;;;7.25;;
846;SDS011;410;48.954;9.474;2024-01-06T10:13:33;9.32;;;6.43;;
846;SDS011;410;48.954;9.474;2024-01-06T10:15:37;8.65;;;5.88;;
846;SDS011;410;48.954;9.474;2024-01-06T10:17:40;15.93;;;6.60;;
846;SDS011;410;48.954;9.474;2024-01-06T10:19:44;6.57;;;5.75;;
846;SDS011;410;48.954;9.474;2024-01-06T10:21:49;9.35;;;5.72;;
846;SDS011;410;48.954;9.474;2024-01-06T10:23:53;10.05;;;7.18;;
846;SDS011;410;48.954;9.474;2024-01-06T10:25:58;9.30;;;5.70;;
846;SDS011;410;48.954;9.474;2024-01-06T10:28:05;8.70;;;6.90;;
846;SDS011;410;48.954;9.474;2024-01-06T10:30:10;10.90;;;7.03;;
846;SDS011;410;48.954;9.474;2024-01-06T10:32:15;10.67;;;6.37;;
846;SDS011;410;48.954;9.474;2024-01-06T10:34:20;10.90;;;6.80;;
846;SDS011;410;48.954;9.474;2024-01-06T10:36:24;7.85;;;6.05;;
846;SDS011;410;48.954;9.474;2024-01-06T10:38:28;8.85;;;6.40;;
846;SDS011;410;48.954;9.474;2024-01-06T10:40:32;9.48;;;7.32;;
846;SDS011;410;48.954;9.474;2024-01-06T10:42:37;7.60;;;6.23;;
846;SDS011;410;48.954;9.474;2024-01-06T10:44:41;8.93;;;7.30;;
846;SDS011;410;48.954;9.474;2024-01-06T10:46:48;10.27;;;6.67;;
846;SDS011;410;48.954;9.474;2024-01-06T10:48:55;7.55;;;6.47;;
846;SDS011;410;48.954;9.474;2024-01-06T10:50:57;8.50;;;6.97;;
846;SDS011;410;48.954;9.474;2024-01-06T10:53:02;10.43;;;7.32;;
846;SDS011;410;48.954;9.474;2024-01-06T10:55:06;8.27;;;6.95;;
846;SDS011;410;48.954;9.474;2024-01-06T10:57:10;10.60;;;7.82;;
846;SDS011;410;48.954;9.474;2024-01-06T10:59:16;10.52;;;7.45;;
846;SDS011;410;48.954;9.474;2024-01-06T11:01:22;7.57;;;6.43;;
846;SDS011;410;48.954;9.474;2024-01-06T11:03:31;9.18;;;7.22;;
846;SDS011;410;48.954;9.474;2024-01-06T11:05:35;10.52;;;8.48;;
846;SDS011;410;48.954;9.474;2024-01-06T11:07:39;11.45;;;8.55;;
846;SDS011;410;48.954;9.474;2024-01-06T11:09:44;14.27;;;11.27;;
846;SDS011;410;48.954;9.474;2024-01-06T11:11:49;10.80;;;9.05;;
846;SDS011;410;48.954;9.474;2024-01-06T11:13:53;10.82;;;8.60;;
846;SDS011;410;48.954;9.474;2024-01-06T11:16:34;12.45;;;8.32;;
846;SDS011;410;48.954;9.474;2024-01-06T11:18:39;13.10;;;9.68;;
846;SDS011;410;48.954;9.474;2024-01-06T11:23:29;16.48;;;9.35;;
846;SDS011;410;48.954;9.474;2024-01-06T11:25:32;15.43;;;9.60;;
846;SDS011;410;48.954;9.474;2024-01-06T11:27:35;10.48;;;8.98;;
846;SDS011;410;48.954;9.474;2024-01-06T11:29:41;9.60;;;7.70;;
846;SDS011;410;48.954;9.474;2024-01-06T11:34:24;9.40;;;7.25;;
846;SDS011;410;48.954;9.474;2024-01-06T11:36:27;10.57;;;8.75;;
846;SDS011;410;48.954;9.474;2024-01-06T11:38:32;14.18;;;10.93;;
846;SDS011;410;48.954;9.474;2024-01-06T11:40:42;13.32;;;10.07;;
846;SDS011;410;48.954;9.474;2024-01-06T11:42:46;11.00;;;8.05;;
846;SDS011;410;48.954;9.474;2024-01-06T11:44:51;12.00;;;8.40;;
846;SDS011;410;48.954;9.474;2024-01-06T11:46:55;14.50;;;9.80;;
846;SDS011;410;48.954;9.474;2024-01-06T11:48:59;11.27;;;8.88;;
846;SDS011;410;48.954;9.474;2024-01-06T11:51:03;13.63;;;9.32;;
846;SDS011;410;48.954;9.474;2024-01-06T11:53:07;15.70;;;10.13;;
846;SDS011;410;48.954;9.474;2024-01-06T11:55:12;14.75;;;9.98;;
846;SDS011;410;48.954;9.474;2024-01-06T11:57:16;10.05;;;7.70;;
846;SDS011;410;48.954;9.474;2024-01-06T11:59:19;11.85;;;8.05;;
846;SDS011;410;48.954;9.474;2024-01-06T12:01:24;11.52;;;8.10;;
846;SDS011;410;48.954;9.474;2024-01-06T12:03:28;11.88;;;8.20;;
846;SDS011;410;48.954;9.474;2024-01-06T12:05:34;9.75;;;7.40;;
846;SDS011;410;48.954;9.474;2024-01-06T12:07:37;9.60;;;7.10;;
846;SDS011;410;48.954;9.474;2024-01-06T12:09:43;11.10;;;7.93;;
846;SDS011;410;48.954;9.474;2024-01-06T12:11:45;12.50;;;7.57;;
846;SDS011;410;48.954;9.474;2024-01-06T12:13:49;14.02;;;9.30;;
846;SDS011;410;48.954;9.474;2024-01-06T12:15:53;13.48;;;9.07;;
846;SDS011;410;48.954;9.474;2024-01-06T12:17:58;10.63;;;7.60;;
846;SDS011;410;48.954;9.474;2024-01-06T12:20:01;14.30;;;9.95;;
846;SDS011;410;48.954;9.474;2024-01-06T12:22:06;13.13;;;8.90;;
846;SDS011;410;48.954;9.474;2024-01-06T12:24:15;13.93;;;9.38;;
846;SDS011;410;48.954;9.474;2024-01-06T12:26:19;12.52;;;9.15;;
846;SDS011;410;48.954;9.474;2024-01-06T12:28:23;11.73;;;8.82;;
846;SDS011;410;48.954;9.474;2024-01-06T12:30:26;10.40;;;7.72;;
846;SDS011;410;48.954;9.474;2024-01-06T12:32:32;9.07;;;7.15;;
846;SDS011;410;48.954;9.474;2024-01-06T12:34:39;9.43;;;7.68;;
846;SDS011;410;48.954;9.474;2024-01-06T12:36:43;10.13;;;7.40;;
846;SDS011;410;48.954;9.474;2024-01-06T12:38:46;8.35;;;6.93;;
846;SDS011;410;48.954;9.474;2024-01-06T12:40:50;8.85;;;6.82;;
846;SDS011;410;48.954;9.474;2024-01-06T12:42:53;7.78;;;6.45;;
846;SDS011;410;48.954;9.474;2024-01-06T12:44:55;9.10;;;6.97;;
846;SDS011;410;48.954;9.474;2024-01-06T12:46:59;13.45;;;7.60;;
846;SDS011;410;48.954;9.474;2024-01-06T12:49:02;7.97;;;6.63;;
846;SDS011;410;48.954;9.474;2024-01-06T12:51:06;8.70;;;6.93;;
846;SDS011;410;48.954;9.474;2024-01-06T12:53:10;10.48;;;8.35;;
846;SDS011;410;48.954;9.474;2024-01-06T12:55:14;14.80;;;10.43;;
846;SDS011;410;48.954;9.474;2024-01-06T12:57:19;20.85;;;15.90;;
846;SDS011;410;48.954;9.474;2024-01-06T12:59:22;8.98;;;7.28;;
846;SDS011;410;48.954;9.474;2024-01-06T13:01:26;13.57;;;7.72;;
846;SDS011;410;48.954;9.474;2024-01-06T13:03:30;14.88;;;8.88;;
846;SDS011;410;48.954;9.474;2024-01-06T13:05:34;13.52;;;9.57;;
846;SDS011;410;48.954;9.474;2024-01-06T13:07:40;11.52;;;7.82;;
846;SDS011;410;48.954;9.474;2024-01-06T13:09:43;11.23;;;7.78;;
846;SDS011;410;48.954;9.474;2024-01-06T13:11:46;9.85;;;8.05;;
846;SDS011;410;48.954;9.474;2024-01-06T13:13:49;10.07;;;7.68;;
846;SDS011;410;48.954;9.474;2024-01-06T13:15:53;11.18;;;7.10;;
846;SDS011;410;48.954;9.474;2024-01-06T13:17:56;9.80;;;7.80;;
846;SDS011;410;48.954;9.474;2024-01-06T13:20:00;9.50;;;6.93;;
846;SDS011;410;48.954;9.474;2024-01-06T13:22:03;10.90;;;7.43;;
846;SDS011;410;48.954;9.474;2024-01-06T13:24:08;17.95;;;10.80;;
846;SDS011;410;48.954;9.474;2024-01-06T13:26:12;15.57;;;8.95;;
846;SDS011;410;48.954;9.474;2024-01-06T13:28:17;10.40;;;7.63;;
846;SDS011;410;48.954;9.474;2024-01-06T13:30:20;9.10;;;7.63;;
846;SDS011;410;48.954;9.474;2024-01-06T13:32:25;9.85;;;7.57;;
846;SDS011;410;48.954;9.474;2024-01-06T13:34:29;10.88;;;8.10;;
846;SDS011;410;48.954;9.474;2024-01-06T13:36:32;11.50;;;8.70;;
846;SDS011;410;48.954;9.474;2024-01-06T13:38:36;18.13;;;10.05;;
846;SDS011;410;48.954;9.474;2024-01-06T13:40:41;11.82;;;8.80;;
846;SDS011;410;48.954;9.474;2024-01-06T13:42:44;9.77;;;7.63;;
846;SDS011;410;48.954;9.474;2024-01-06T13:44:49;13.70;;;10.00;;